Private Wetterstation Sandau
Wetterdaten: Sonntag, 04.11.2012
Datum Zeit Temp. A. Feuchte A. Luftdruck Regen Wind Richtung Richtung Taupunkt Windchill
04.11.2012 00:01 5,5 C 86 % 1002,5 hPa 0,0 l/m 5,8 km/h (2 Bft) W-SW 247 3,3 C 4,4 C
04.11.2012 00:06 5,4 C 86 % 1002,6 hPa 0,0 l/m 7,9 km/h (2 Bft) W-SW 247 3,3 C 3,6 C
04.11.2012 00:11 5,4 C 86 % 1002,4 hPa 0,0 l/m 6,1 km/h (2 Bft) S-SW 202 3,3 C 4,2 C
04.11.2012 00:16 5,3 C 86 % 1002,3 hPa 0,0 l/m 5,0 km/h (1 Bft) S-SW 202 3,2 C 4,4 C
04.11.2012 00:21 5,3 C 86 % 1002,5 hPa 0,0 l/m 4,0 km/h (1 Bft) S-SO 157 3,2 C 5,3 C
04.11.2012 00:26 5,2 C 86 % 1002,6 hPa 0,0 l/m 3,6 km/h (1 Bft) S-SW 202 3,1 C 5,2 C
04.11.2012 00:31 5,1 C 87 % 1002,6 hPa 0,0 l/m 10,8 km/h (2 Bft) SW 225 3,1 C 2,6 C
04.11.2012 00:36 5,0 C 87 % 1002,8 hPa 0,0 l/m 10,8 km/h (2 Bft) SW 225 3,0 C 2,5 C
04.11.2012 00:41 5,0 C 87 % 1003,1 hPa 0,0 l/m 11,5 km/h (2 Bft) S-SW 202 3,0 C 2,4 C
04.11.2012 00:46 5,1 C 87 % 1003,1 hPa 0,0 l/m 17,3 km/h (3 Bft) S-SW 202 3,1 C 1,5 C
04.11.2012 00:51 5,1 C 87 % 1003,1 hPa 0,0 l/m 7,6 km/h (2 Bft) SW 225 3,1 C 3,4 C
04.11.2012 00:56 5,1 C 87 % 1003,1 hPa 0,0 l/m 11,9 km/h (2 Bft) W-SW 247 3,1 C 2,4 C
04.11.2012 01:01 5,1 C 87 % 1003,4 hPa 0,0 l/m 13,0 km/h (3 Bft) W 270 3,1 C 2,2 C
04.11.2012 01:06 5,1 C 87 % 1003,6 hPa 0,0 l/m 4,7 km/h (1 Bft) S-SW 202 3,1 C 4,3 C
04.11.2012 01:11 5,1 C 87 % 1003,8 hPa 0,0 l/m 5,0 km/h (1 Bft) S-SO 157 3,1 C 4,2 C
04.11.2012 01:16 4,9 C 87 % 1003,9 hPa 0,0 l/m 5,8 km/h (2 Bft) S 180 2,9 C 3,7 C
04.11.2012 01:21 4,9 C 87 % 1003,8 hPa 0,0 l/m 9,0 km/h (2 Bft) SW 225 2,9 C 2,8 C
04.11.2012 01:26 4,8 C 87 % 1003,6 hPa 0,0 l/m 3,2 km/h (1 Bft) S-SO 157 2,8 C 4,8 C
04.11.2012 01:31 4,6 C 87 % 1003,5 hPa 0,0 l/m 2,5 km/h (1 Bft) S-SW 202 2,6 C 4,6 C
04.11.2012 01:36 4,5 C 87 % 1003,5 hPa 0,0 l/m 1,1 km/h (1 Bft) S-SW 202 2,5 C 4,5 C
04.11.2012 01:41 4,4 C 87 % 1003,7 hPa 0,0 l/m 7,9 km/h (2 Bft) SO 135 2,4 C 2,5 C
04.11.2012 01:46 4,4 C 87 % 1003,8 hPa 0,0 l/m 7,2 km/h (2 Bft) S-SO 157 2,4 C 2,7 C
04.11.2012 01:51 4,3 C 88 % 1003,7 hPa 0,0 l/m 4,7 km/h (1 Bft) S-SW 202 2,5 C 3,4 C
04.11.2012 01:56 4,3 C 88 % 1003,7 hPa 0,0 l/m 2,2 km/h (1 Bft) S-SW 202 2,5 C 4,3 C
04.11.2012 02:01 4,3 C 88 % 1003,7 hPa 0,0 l/m 7,6 km/h (2 Bft) S-SW 202 2,5 C 2,4 C
04.11.2012 02:06 4,3 C 88 % 1003,8 hPa 0,0 l/m 2,9 km/h (1 Bft) S 180 2,5 C 4,3 C
04.11.2012 02:11 4,3 C 88 % 1003,6 hPa 0,0 l/m 1,4 km/h (1 Bft) S 180 2,5 C 4,3 C
04.11.2012 02:16 4,3 C 88 % 1003,7 hPa 0,0 l/m 7,2 km/h (2 Bft) S-SW 202 2,5 C 2,5 C
04.11.2012 02:21 4,3 C 88 % 1003,8 hPa 0,0 l/m 3,6 km/h (1 Bft) S 180 2,5 C 4,3 C
04.11.2012 02:26 4,2 C 88 % 1003,8 hPa 0,0 l/m 4,7 km/h (1 Bft) S-SW 202 2,4 C 3,3 C
04.11.2012 02:31 4,2 C 88 % 1003,9 hPa 0,0 l/m 7,9 km/h (2 Bft) SW 225 2,4 C 2,2 C
04.11.2012 02:36 4,2 C 88 % 1004,0 hPa 0,0 l/m 8,6 km/h (2 Bft) W-SW 247 2,4 C 2,0 C
04.11.2012 02:41 4,3 C 88 % 1004,1 hPa 0,0 l/m 11,2 km/h (2 Bft) W-SW 247 2,5 C 1,6 C
04.11.2012 02:46 4,3 C 88 % 1004,0 hPa 0,0 l/m 4,0 km/h (1 Bft) S-SW 202 2,5 C 4,3 C
04.11.2012 02:51 4,3 C 88 % 1004,0 hPa 0,0 l/m 5,0 km/h (1 Bft) W-SW 247 2,5 C 3,3 C
04.11.2012 02:56 4,2 C 88 % 1004,1 hPa 0,0 l/m 6,1 km/h (2 Bft) S-SW 202 2,4 C 2,8 C
04.11.2012 03:01 4,2 C 88 % 1004,1 hPa 0,0 l/m 3,2 km/h (1 Bft) S 180 2,4 C 4,2 C
04.11.2012 03:06 4,2 C 88 % 1004,2 hPa 0,0 l/m 4,0 km/h (1 Bft) SW 225 2,4 C 4,2 C
04.11.2012 03:11 4,1 C 87 % 1004,1 hPa 0,0 l/m 4,3 km/h (1 Bft) S 180 2,1 C 4,1 C
04.11.2012 03:16 4,1 C 87 % 1004,1 hPa 0,0 l/m 8,3 km/h (2 Bft) S-SW 202 2,1 C 2,0 C
04.11.2012 03:21 3,9 C 87 % 1004,0 hPa 0,0 l/m 1,8 km/h (1 Bft) S-SW 202 1,9 C 3,9 C
04.11.2012 03:26 3,9 C 87 % 1004,2 hPa 0,0 l/m 5,4 km/h (1 Bft) W-SW 247 1,9 C 2,7 C
04.11.2012 03:31 3,9 C 88 % 1004,3 hPa 0,0 l/m 6,1 km/h (2 Bft) SW 225 2,1 C 2,4 C
04.11.2012 03:36 3,9 C 88 % 1004,3 hPa 0,0 l/m 2,2 km/h (1 Bft) W-SW 247 2,1 C 3,9 C
04.11.2012 03:41 3,8 C 88 % 1004,3 hPa 0,0 l/m 4,0 km/h (1 Bft) S-SW 202 2,0 C 3,8 C
04.11.2012 03:46 3,8 C 88 % 1004,2 hPa 0,0 l/m 4,0 km/h (1 Bft) W-SW 247 2,0 C 3,8 C
04.11.2012 03:51 3,8 C 88 % 1004,4 hPa 0,0 l/m 3,2 km/h (1 Bft) SW 225 2,0 C 3,8 C
04.11.2012 03:56 3,8 C 88 % 1004,5 hPa 0,0 l/m 4,0 km/h (1 Bft) S 180 2,0 C 3,8 C
04.11.2012 04:01 3,8 C 88 % 1004,6 hPa 0,0 l/m 6,1 km/h (2 Bft) SW 225 2,0 C 2,3 C
04.11.2012 04:06 3,8 C 88 % 1004,6 hPa 0,0 l/m 7,2 km/h (2 Bft) SW 225 2,0 C 2,0 C
04.11.2012 04:11 3,8 C 88 % 1004,8 hPa 0,0 l/m 6,1 km/h (2 Bft) W 270 2,0 C 2,3 C
04.11.2012 04:16 3,8 C 88 % 1004,9 hPa 0,0 l/m 7,2 km/h (2 Bft) S-SW 202 2,0 C 2,0 C
04.11.2012 04:21 3,8 C 88 % 1004,9 hPa 0,0 l/m 6,1 km/h (2 Bft) S 180 2,0 C 2,3 C
04.11.2012 04:26 3,9 C 88 % 1004,8 hPa 0,0 l/m 10,4 km/h (2 Bft) S-SW 202 2,1 C 1,3 C
04.11.2012 04:31 3,9 C 88 % 1005,1 hPa 0,0 l/m 8,6 km/h (2 Bft) W-SW 247 2,1 C 1,7 C
04.11.2012 04:36 3,9 C 88 % 1005,1 hPa 0,0 l/m 8,3 km/h (2 Bft) W-SW 247 2,1 C 1,8 C
04.11.2012 04:41 3,9 C 88 % 1005,2 hPa 0,0 l/m 7,2 km/h (2 Bft) S-SW 202 2,1 C 2,1 C
04.11.2012 04:46 3,9 C 88 % 1005,3 hPa 0,0 l/m 7,6 km/h (2 Bft) W-SW 247 2,1 C 2,0 C
04.11.2012 04:51 3,9 C 88 % 1005,3 hPa 0,0 l/m 4,7 km/h (1 Bft) S 180 2,1 C 3,0 C
04.11.2012 04:56 3,9 C 88 % 1005,3 hPa 0,0 l/m 7,2 km/h (2 Bft) S 180 2,1 C 2,1 C
04.11.2012 05:01 3,8 C 88 % 1005,3 hPa 0,0 l/m 5,0 km/h (1 Bft) S-SW 202 2,0 C 2,7 C
04.11.2012 05:06 3,8 C 88 % 1005,2 hPa 0,0 l/m 4,0 km/h (1 Bft) S-SW 202 2,0 C 3,8 C
04.11.2012 05:11 3,7 C 88 % 1005,3 hPa 0,0 l/m 8,6 km/h (2 Bft) W-SW 247 1,9 C 1,4 C
04.11.2012 05:16 3,6 C 88 % 1005,4 hPa 0,0 l/m 7,6 km/h (2 Bft) S-SW 202 1,8 C 1,6 C
04.11.2012 05:21 3,6 C 88 % 1005,3 hPa 0,0 l/m 6,5 km/h (2 Bft) SW 225 1,8 C 1,9 C
04.11.2012 05:26 3,6 C 88 % 1005,4 hPa 0,0 l/m 4,0 km/h (1 Bft) SW 225 1,8 C 3,6 C
04.11.2012 05:31 3,6 C 88 % 1005,7 hPa 0,0 l/m 6,1 km/h (2 Bft) S-SW 202 1,8 C 2,1 C
04.11.2012 05:36 3,6 C 88 % 1005,4 hPa 0,0 l/m 8,6 km/h (2 Bft) S 180 1,8 C 1,3 C
04.11.2012 05:41 3,6 C 88 % 1005,4 hPa 0,0 l/m 2,9 km/h (1 Bft) S-SW 202 1,8 C 3,6 C
04.11.2012 05:46 3,6 C 88 % 1005,4 hPa 0,0 l/m 8,3 km/h (2 Bft) SW 225 1,8 C 1,4 C
04.11.2012 05:51 3,6 C 88 % 1005,3 hPa 0,0 l/m 6,5 km/h (2 Bft) SW 225 1,8 C 1,9 C
04.11.2012 05:56 3,6 C 88 % 1005,4 hPa 0,0 l/m 4,0 km/h (1 Bft) W-SW 247 1,8 C 3,6 C
04.11.2012 06:01 3,5 C 88 % 1005,5 hPa 0,0 l/m 4,7 km/h (1 Bft) SW 225 1,7 C 2,5 C
04.11.2012 06:06 3,5 C 88 % 1005,5 hPa 0,0 l/m 3,6 km/h (1 Bft) S 180 1,7 C 3,5 C
04.11.2012 06:11 3,5 C 88 % 1005,6 hPa 0,0 l/m 6,8 km/h (2 Bft) S-SW 202 1,7 C 1,7 C
04.11.2012 06:16 3,5 C 88 % 1005,6 hPa 0,0 l/m 5,0 km/h (1 Bft) S-SW 202 1,7 C 2,4 C
04.11.2012 06:21 3,5 C 88 % 1005,6 hPa 0,0 l/m 4,7 km/h (1 Bft) S 180 1,7 C 2,5 C
04.11.2012 06:26 3,5 C 88 % 1005,6 hPa 0,0 l/m 2,5 km/h (1 Bft) S-SW 202 1,7 C 3,5 C
04.11.2012 06:31 3,5 C 88 % 1005,6 hPa 0,0 l/m 0,0 km/h (0 Bft) S-SO 157 1,7 C 3,5 C
04.11.2012 06:36 3,4 C 89 % 1005,6 hPa 0,0 l/m 4,7 km/h (1 Bft) S-SW 202 1,8 C 2,4 C
04.11.2012 06:41 3,4 C 88 % 1005,5 hPa 0,0 l/m 9,7 km/h (2 Bft) SW 225 1,6 C 0,8 C
04.11.2012 06:46 3,3 C 88 % 1005,5 hPa 0,0 l/m 2,5 km/h (1 Bft) S-SW 202 1,5 C 3,3 C
04.11.2012 06:51 3,3 C 89 % 1005,5 hPa 0,0 l/m 3,2 km/h (1 Bft) S-SW 202 1,7 C 3,3 C
04.11.2012 06:56 3,3 C 89 % 1005,5 hPa 0,0 l/m 0,0 km/h (0 Bft) S 180 1,7 C 3,3 C
04.11.2012 07:01 3,3 C 89 % 1005,6 hPa 0,0 l/m 7,9 km/h (2 Bft) S-SW 202 1,7 C 1,2 C
04.11.2012 07:06 3,3 C 89 % 1005,6 hPa 0,0 l/m 7,6 km/h (2 Bft) S 180 1,7 C 1,3 C
04.11.2012 07:11 3,3 C 89 % 1005,6 hPa 0,0 l/m 4,3 km/h (1 Bft) SW 225 1,7 C 3,3 C
04.11.2012 07:16 3,3 C 89 % 1005,5 hPa 0,0 l/m 3,6 km/h (1 Bft) SW 225 1,7 C 3,3 C
04.11.2012 07:21 3,3 C 89 % 1005,6 hPa 0,0 l/m 5,8 km/h (2 Bft) S-SW 202 1,7 C 1,8 C
04.11.2012 07:26 3,2 C 89 % 1005,7 hPa 0,0 l/m 4,0 km/h (1 Bft) SW 225 1,6 C 3,2 C
04.11.2012 07:31 3,2 C 89 % 1005,8 hPa 0,0 l/m 2,2 km/h (1 Bft) S-SW 202 1,6 C 3,2 C
04.11.2012 07:36 3,3 C 89 % 1005,8 hPa 0,0 l/m 3,2 km/h (1 Bft) S-SW 202 1,7 C 3,3 C
04.11.2012 07:41 3,3 C 89 % 1005,9 hPa 0,0 l/m 4,7 km/h (1 Bft) S 180 1,7 C 2,3 C
04.11.2012 07:46 3,3 C 89 % 1006,0 hPa 0,0 l/m 2,5 km/h (1 Bft) S 180 1,7 C 3,3 C
04.11.2012 07:51 3,3 C 89 % 1006,1 hPa 0,0 l/m 0,0 km/h (0 Bft) S-SW 202 1,7 C 3,3 C
04.11.2012 07:56 3,3 C 89 % 1006,2 hPa 0,0 l/m 0,0 km/h (0 Bft) S 180 1,7 C 3,3 C
04.11.2012 08:01 3,3 C 89 % 1006,2 hPa 0,0 l/m 4,0 km/h (1 Bft) SW 225 1,7 C 3,3 C
04.11.2012 08:06 3,4 C 89 % 1006,1 hPa 0,0 l/m 2,9 km/h (1 Bft) S 180 1,8 C 3,4 C
04.11.2012 08:11 3,5 C 89 % 1006,2 hPa 0,0 l/m 3,2 km/h (1 Bft) S-SW 202 1,9 C 3,5 C
04.11.2012 08:16 3,5 C 89 % 1006,1 hPa 0,0 l/m 3,2 km/h (1 Bft) SW 225 1,9 C 3,5 C
04.11.2012 08:21 3,6 C 89 % 1006,2 hPa 0,0 l/m 3,6 km/h (1 Bft) SW 225 2,0 C 3,6 C
04.11.2012 08:26 3,7 C 89 % 1006,2 hPa 0,0 l/m 2,2 km/h (1 Bft) S-SO 157 2,1 C 3,7 C
04.11.2012 08:31 3,8 C 89 % 1006,2 hPa 0,0 l/m 0,0 km/h (0 Bft) S 180 2,2 C 3,8 C
04.11.2012 08:36 3,9 C 90 % 1006,2 hPa 0,0 l/m 2,2 km/h (1 Bft) S 180 2,4 C 3,9 C
04.11.2012 08:41 4,1 C 90 % 1006,2 hPa 0,0 l/m 0,0 km/h (0 Bft) S 180 2,6 C 4,1 C
04.11.2012 08:46 4,2 C 90 % 1006,3 hPa 0,0 l/m 1,8 km/h (1 Bft) S-SO 157 2,7 C 4,2 C
04.11.2012 08:51 4,3 C 90 % 1006,2 hPa 0,0 l/m 3,6 km/h (1 Bft) S-SO 157 2,8 C 4,3 C
04.11.2012 08:56 4,4 C 90 % 1006,4 hPa 0,0 l/m 3,2 km/h (1 Bft) S-SO 157 2,9 C 4,4 C
04.11.2012 09:01 4,6 C 89 % 1006,3 hPa 0,0 l/m 3,6 km/h (1 Bft) S-SW 202 2,9 C 4,6 C
04.11.2012 09:06 4,7 C 89 % 1006,2 hPa 0,0 l/m 2,9 km/h (1 Bft) S-SO 157 3,0 C 4,7 C
04.11.2012 09:11 4,9 C 89 % 1006,3 hPa 0,0 l/m 4,3 km/h (1 Bft) S-SO 157 3,2 C 4,9 C
04.11.2012 09:16 5,1 C 89 % 1006,2 hPa 0,0 l/m 8,3 km/h (2 Bft) S-SW 202 3,4 C 3,2 C
04.11.2012 09:21 5,2 C 89 % 1006,3 hPa 0,0 l/m 2,5 km/h (1 Bft) S-SW 202 3,5 C 5,2 C
04.11.2012 09:26 5,3 C 89 % 1006,2 hPa 0,0 l/m 2,2 km/h (1 Bft) S 180 3,6 C 5,3 C
04.11.2012 09:31 5,5 C 89 % 1006,1 hPa 0,0 l/m 5,4 km/h (1 Bft) S-SW 202 3,8 C 4,5 C
04.11.2012 09:36 5,6 C 89 % 1006,2 hPa 0,0 l/m 7,2 km/h (2 Bft) S-SW 202 3,9 C 4,1 C
04.11.2012 09:41 5,6 C 89 % 1006,3 hPa 0,0 l/m 10,1 km/h (2 Bft) S-SW 202 3,9 C 3,4 C
04.11.2012 09:46 5,8 C 89 % 1006,2 hPa 0,0 l/m 3,2 km/h (1 Bft) S-SW 202 4,1 C 5,8 C
04.11.2012 09:51 5,9 C 88 % 1006,2 hPa 0,0 l/m 5,0 km/h (1 Bft) S 180 4,1 C 5,1 C
04.11.2012 09:56 6,1 C 88 % 1006,2 hPa 0,0 l/m 0,0 km/h (0 Bft) S-SW 202 4,3 C 6,1 C
04.11.2012 10:01 6,2 C 88 % 1006,2 hPa 0,0 l/m 2,5 km/h (1 Bft) S 180 4,4 C 6,2 C
04.11.2012 10:06 6,3 C 88 % 1006,1 hPa 0,0 l/m 7,6 km/h (2 Bft) S-SW 202 4,5 C 4,8 C
04.11.2012 10:11 6,4 C 88 % 1006,1 hPa 0,0 l/m 5,0 km/h (1 Bft) SW 225 4,6 C 5,7 C
04.11.2012 10:16 6,4 C 88 % 1006,1 hPa 0,0 l/m 2,2 km/h (1 Bft) S 180 4,6 C 6,4 C
04.11.2012 10:21 6,5 C 88 % 1006,2 hPa 0,0 l/m 3,6 km/h (1 Bft) S 180 4,7 C 6,5 C
04.11.2012 10:26 6,6 C 88 % 1006,2 hPa 0,0 l/m 2,2 km/h (1 Bft) S 180 4,8 C 6,6 C
04.11.2012 10:31 6,6 C 87 % 1005,9 hPa 0,0 l/m 2,2 km/h (1 Bft) S 180 4,6 C 6,6 C
04.11.2012 10:36 6,8 C 87 % 1005,8 hPa 0,0 l/m 3,2 km/h (1 Bft) SO 135 4,8 C 6,8 C
04.11.2012 10:41 6,9 C 87 % 1006,0 hPa 0,0 l/m 2,2 km/h (1 Bft) S-SW 202 4,9 C 6,9 C
04.11.2012 10:46 6,9 C 88 % 1005,9 hPa 0,0 l/m 3,2 km/h (1 Bft) S-SO 157 5,1 C 6,9 C
04.11.2012 10:51 7,1 C 87 % 1005,9 hPa 0,0 l/m 4,0 km/h (1 Bft) S-SO 157 5,1 C 7,1 C
04.11.2012 10:56 7,2 C 87 % 1006,0 hPa 0,0 l/m 3,2 km/h (1 Bft) SO 135 5,2 C 7,2 C
04.11.2012 11:01 7,2 C 87 % 1005,9 hPa 0,0 l/m 0,0 km/h (0 Bft) SO 135 5,2 C 7,2 C
04.11.2012 11:06 7,3 C 87 % 1005,8 hPa 0,0 l/m 3,2 km/h (1 Bft) SO 135 5,3 C 7,3 C
04.11.2012 11:11 7,3 C 87 % 1005,7 hPa 0,0 l/m 2,2 km/h (1 Bft) S-SW 202 5,3 C 7,3 C
04.11.2012 11:16 7,4 C 87 % 1005,5 hPa 0,0 l/m 2,5 km/h (1 Bft) S-SW 202 5,4 C 7,4 C
04.11.2012 11:21 7,6 C 86 % 1005,5 hPa 0,0 l/m 1,4 km/h (1 Bft) S-SO 157 5,4 C 7,6 C
04.11.2012 11:26 7,6 C 86 % 1005,6 hPa 0,0 l/m 3,2 km/h (1 Bft) S-SO 157 5,4 C 7,6 C
04.11.2012 11:31 7,8 C 86 % 1005,4 hPa 0,0 l/m 5,0 km/h (1 Bft) S-SW 202 5,6 C 7,3 C
04.11.2012 11:36 7,8 C 86 % 1005,5 hPa 0,0 l/m 6,5 km/h (2 Bft) S 180 5,6 C 6,8 C
04.11.2012 11:41 7,9 C 86 % 1005,4 hPa 0,0 l/m 5,0 km/h (1 Bft) S-SW 202 5,7 C 7,4 C
04.11.2012 11:46 7,9 C 86 % 1005,4 hPa 0,0 l/m 6,5 km/h (2 Bft) S 180 5,7 C 6,9 C
04.11.2012 11:51 8,1 C 86 % 1005,5 hPa 0,0 l/m 3,6 km/h (1 Bft) S-SW 202 5,9 C 8,1 C
04.11.2012 11:56 8,1 C 85 % 1005,5 hPa 0,0 l/m 6,5 km/h (2 Bft) S-SO 157 5,7 C 7,1 C
04.11.2012 12:01 8,2 C 85 % 1005,2 hPa 0,0 l/m 2,9 km/h (1 Bft) S 180 5,8 C 8,2 C
04.11.2012 12:06 8,3 C 85 % 1005,3 hPa 0,0 l/m 1,4 km/h (1 Bft) S-SO 157 5,9 C 8,3 C
04.11.2012 12:11 8,3 C 85 % 1004,8 hPa 0,0 l/m 2,9 km/h (1 Bft) SO 135 5,9 C 8,3 C
04.11.2012 12:16 8,4 C 85 % 1004,8 hPa 0,0 l/m 2,5 km/h (1 Bft) S-SO 157 6,0 C 8,4 C
04.11.2012 12:21 8,4 C 85 % 1004,9 hPa 0,0 l/m 0,0 km/h (0 Bft) SO 135 6,0 C 8,4 C
04.11.2012 12:26 8,6 C 84 % 1004,8 hPa 0,0 l/m 0,0 km/h (0 Bft) SO 135 6,1 C 8,6 C
04.11.2012 12:31 8,8 C 84 % 1004,7 hPa 0,0 l/m 0,0 km/h (0 Bft) S-SO 157 6,2 C 8,8 C
04.11.2012 12:36 8,9 C 84 % 1004,5 hPa 0,0 l/m 3,2 km/h (1 Bft) SO 135 6,3 C 8,9 C
04.11.2012 12:41 9,0 C 84 % 1004,5 hPa 0,0 l/m 0,0 km/h (0 Bft) S 180 6,4 C 9,0 C
04.11.2012 12:46 9,1 C 83 % 1004,6 hPa 0,0 l/m 6,1 km/h (2 Bft) S-SO 157 6,4 C 8,4 C
04.11.2012 12:51 9,3 C 83 % 1004,4 hPa 0,0 l/m 0,0 km/h (0 Bft) S-SO 157 6,6 C 9,3 C
04.11.2012 12:56 9,4 C 82 % 1004,3 hPa 0,0 l/m 6,5 km/h (2 Bft) SO 135 6,5 C 8,7 C
04.11.2012 13:01 9,5 C 81 % 1004,2 hPa 0,0 l/m 2,2 km/h (1 Bft) O-SO 112 6,4 C 9,5 C
04.11.2012 13:06 9,4 C 81 % 1004,1 hPa 0,0 l/m 4,7 km/h (1 Bft) O-SO 112 6,3 C 9,2 C
04.11.2012 13:11 9,4 C 81 % 1003,8 hPa 0,0 l/m 9,4 km/h (2 Bft) SO 135 6,3 C 8,0 C
04.11.2012 13:16 9,5 C 81 % 1003,6 hPa 0,0 l/m 3,6 km/h (1 Bft) SO 135 6,4 C 9,5 C
04.11.2012 13:21 9,5 C 81 % 1003,8 hPa 0,0 l/m 4,3 km/h (1 Bft) S-SO 157 6,4 C 9,5 C
04.11.2012 13:26 9,6 C 81 % 1004,1 hPa 0,0 l/m 0,0 km/h (0 Bft) S-SO 157 6,5 C 9,6 C
04.11.2012 13:31 9,6 C 81 % 1003,9 hPa 0,0 l/m 5,0 km/h (1 Bft) SO 135 6,5 C 9,3 C
04.11.2012 13:36 9,6 C 81 % 1003,8 hPa 0,0 l/m 8,3 km/h (2 Bft) SO 135 6,5 C 8,5 C
04.11.2012 13:41 9,5 C 81 % 1003,7 hPa 0,0 l/m 11,9 km/h (2 Bft) S-SO 157 6,4 C 7,7 C
04.11.2012 13:46 9,5 C 81 % 1003,7 hPa 0,0 l/m 8,3 km/h (2 Bft) SO 135 6,4 C 8,4 C
04.11.2012 13:51 9,5 C 81 % 1003,5 hPa 0,0 l/m 3,6 km/h (1 Bft) S-SO 157 6,4 C 9,5 C
04.11.2012 13:56 9,4 C 81 % 1003,4 hPa 0,0 l/m 3,6 km/h (1 Bft) SO 135 6,3 C 9,4 C
04.11.2012 14:01 9,4 C 81 % 1003,4 hPa 0,0 l/m 9,4 km/h (2 Bft) SO 135 6,3 C 8,0 C
04.11.2012 14:06 9,3 C 81 % 1003,5 hPa 0,0 l/m 9,4 km/h (2 Bft) S-SO 157 6,2 C 7,9 C
04.11.2012 14:11 9,3 C 82 % 1003,3 hPa 0,0 l/m 5,0 km/h (1 Bft) S-SO 157 6,4 C 9,0 C
04.11.2012 14:16 9,3 C 81 % 1003,3 hPa 0,0 l/m 2,9 km/h (1 Bft) S-SO 157 6,2 C 9,3 C
04.11.2012 14:21 9,3 C 81 % 1003,2 hPa 0,0 l/m 7,2 km/h (2 Bft) SO 135 6,2 C 8,4 C
04.11.2012 14:26 9,1 C 81 % 1003,1 hPa 0,0 l/m 5,4 km/h (1 Bft) SO 135 6,0 C 8,6 C
04.11.2012 14:31 9,2 C 81 % 1003,4 hPa 0,0 l/m 3,6 km/h (1 Bft) SO 135 6,1 C 9,2 C
04.11.2012 14:36 9,1 C 81 % 1003,3 hPa 0,0 l/m 8,3 km/h (2 Bft) S-SO 157 6,0 C 7,9 C
04.11.2012 14:41 9,1 C 81 % 1003,1 hPa 0,0 l/m 3,2 km/h (1 Bft) S-SO 157 6,0 C 9,1 C
04.11.2012 14:46 9,0 C 82 % 1002,8 hPa 0,0 l/m 4,0 km/h (1 Bft) S-SO 157 6,1 C 9,0 C
04.11.2012 14:51 9,0 C 81 % 1002,7 hPa 0,0 l/m 5,4 km/h (1 Bft) S-SO 157 5,9 C 8,5 C
04.11.2012 14:56 8,9 C 82 % 1002,7 hPa 0,0 l/m 11,5 km/h (2 Bft) S-SO 157 6,0 C 7,1 C
04.11.2012 15:01 8,9 C 82 % 1002,4 hPa 0,0 l/m 4,7 km/h (1 Bft) SO 135 6,0 C 8,6 C
04.11.2012 15:06 8,9 C 82 % 1002,3 hPa 0,0 l/m 3,2 km/h (1 Bft) SO 135 6,0 C 8,9 C
04.11.2012 15:11 8,8 C 82 % 1002,3 hPa 0,0 l/m 10,4 km/h (2 Bft) S-SO 157 5,9 C 7,1 C
04.11.2012 15:16 8,8 C 82 % 1001,9 hPa 0,0 l/m 4,7 km/h (1 Bft) S-SO 157 5,9 C 8,5 C
04.11.2012 15:21 8,8 C 82 % 1001,9 hPa 0,0 l/m 8,6 km/h (2 Bft) S-SO 157 5,9 C 7,5 C
04.11.2012 15:26 8,8 C 82 % 1002,2 hPa 0,0 l/m 3,2 km/h (1 Bft) SO 135 5,9 C 8,8 C
04.11.2012 15:31 8,7 C 82 % 1002,0 hPa 0,0 l/m 5,0 km/h (1 Bft) SO 135 5,8 C 8,3 C
04.11.2012 15:36 8,7 C 82 % 1001,9 hPa 0,0 l/m 4,0 km/h (1 Bft) SO 135 5,8 C 8,7 C
04.11.2012 15:41 8,6 C 83 % 1001,5 hPa 0,0 l/m 4,3 km/h (1 Bft) O-SO 112 5,9 C 8,6 C
04.11.2012 15:46 8,6 C 83 % 1001,4 hPa 0,0 l/m 2,9 km/h (1 Bft) SO 135 5,9 C 8,6 C
04.11.2012 15:51 8,5 C 83 % 1001,3 hPa 0,0 l/m 7,6 km/h (2 Bft) O-SO 112 5,8 C 7,3 C
04.11.2012 15:56 8,5 C 84 % 1001,2 hPa 0,0 l/m 9,0 km/h (2 Bft) SO 135 6,0 C 7,0 C
04.11.2012 16:01 8,5 C 83 % 1001,3 hPa 0,0 l/m 4,0 km/h (1 Bft) SO 135 5,8 C 8,5 C
04.11.2012 16:06 8,4 C 83 % 1001,2 hPa 0,0 l/m 6,5 km/h (2 Bft) S-SO 157 5,7 C 7,5 C
04.11.2012 16:11 8,4 C 83 % 1001,2 hPa 0,0 l/m 4,0 km/h (1 Bft) SO 135 5,7 C 8,4 C
04.11.2012 16:16 8,4 C 83 % 1001,2 hPa 0,0 l/m 4,7 km/h (1 Bft) SO 135 5,7 C 8,0 C
04.11.2012 16:21 8,4 C 83 % 1001,3 hPa 0,0 l/m 7,9 km/h (2 Bft) S 180 5,7 C 7,2 C
04.11.2012 16:26 8,4 C 83 % 1001,4 hPa 0,0 l/m 7,6 km/h (2 Bft) SO 135 5,7 C 7,2 C
04.11.2012 16:31 8,4 C 83 % 1001,3 hPa 0,0 l/m 6,1 km/h (2 Bft) S 180 5,7 C 7,6 C
04.11.2012 16:36 8,3 C 83 % 1001,1 hPa 0,0 l/m 6,1 km/h (2 Bft) O-SO 112 5,6 C 7,5 C
04.11.2012 16:41 8,3 C 84 % 1001,1 hPa 0,0 l/m 4,0 km/h (1 Bft) SO 135 5,8 C 8,3 C
04.11.2012 16:46 8,3 C 84 % 1001,2 hPa 0,0 l/m 7,2 km/h (2 Bft) S-SO 157 5,8 C 7,2 C
04.11.2012 16:51 8,2 C 84 % 1001,2 hPa 0,0 l/m 5,4 km/h (1 Bft) SO 135 5,7 C 7,6 C
04.11.2012 16:56 8,2 C 84 % 1001,1 hPa 0,0 l/m 11,2 km/h (2 Bft) SO 135 5,7 C 6,3 C
04.11.2012 17:01 8,1 C 85 % 1000,9 hPa 0,0 l/m 6,8 km/h (2 Bft) SO 135 5,7 C 7,1 C
04.11.2012 17:06 8,1 C 85 % 1000,8 hPa 0,0 l/m 8,3 km/h (2 Bft) SO 135 5,7 C 6,7 C
04.11.2012 17:11 8,1 C 85 % 1000,8 hPa 0,0 l/m 5,4 km/h (1 Bft) O-SO 112 5,7 C 7,5 C
04.11.2012 17:16 8,1 C 85 % 1000,5 hPa 0,0 l/m 6,1 km/h (2 Bft) SO 135 5,7 C 7,3 C
04.11.2012 17:21 8,0 C 86 % 1000,5 hPa 0,0 l/m 6,1 km/h (2 Bft) O-SO 112 5,8 C 7,1 C
04.11.2012 17:26 7,9 C 86 % 1000,4 hPa 0,0 l/m 5,4 km/h (1 Bft) SO 135 5,7 C 7,2 C
04.11.2012 17:31 7,9 C 86 % 1000,6 hPa 0,0 l/m 14,4 km/h (3 Bft) SO 135 5,7 C 5,4 C
04.11.2012 17:36 7,8 C 86 % 1000,5 hPa 0,0 l/m 12,2 km/h (2 Bft) SO 135 5,6 C 5,6 C
04.11.2012 17:41 7,8 C 87 % 1000,5 hPa 0,0 l/m 12,2 km/h (2 Bft) SO 135 5,8 C 5,6 C
04.11.2012 17:46 7,8 C 87 % 1000,4 hPa 0,0 l/m 15,8 km/h (3 Bft) SO 135 5,8 C 5,1 C
04.11.2012 17:51 7,8 C 87 % 1000,4 hPa 0,0 l/m 4,0 km/h (1 Bft) O-SO 112 5,8 C 7,8 C
04.11.2012 17:56 7,8 C 87 % 1000,3 hPa 0,0 l/m 6,1 km/h (2 Bft) O-SO 112 5,8 C 6,9 C
04.11.2012 18:01 7,7 C 88 % 1000,0 hPa 0,0 l/m 14,0 km/h (3 Bft) SO 135 5,8 C 5,2 C
04.11.2012 18:06 7,6 C 88 % 1000,0 hPa 0,0 l/m 9,4 km/h (2 Bft) S-SO 157 5,7 C 5,9 C
04.11.2012 18:11 7,6 C 88 % 999,7 hPa 0,5 l/m 10,1 km/h (2 Bft) S-SO 157 5,7 C 5,7 C
04.11.2012 18:16 7,5 C 88 % 999,4 hPa 0,0 l/m 7,2 km/h (2 Bft) S-SO 157 5,6 C 6,3 C
04.11.2012 18:21 7,5 C 89 % 999,3 hPa 0,0 l/m 10,8 km/h (2 Bft) S-SO 157 5,8 C 5,5 C
04.11.2012 18:26 7,4 C 89 % 999,4 hPa 0,0 l/m 8,3 km/h (2 Bft) SO 135 5,7 C 5,9 C
04.11.2012 18:31 7,4 C 89 % 999,3 hPa 0,0 l/m 5,4 km/h (1 Bft) SO 135 5,7 C 6,7 C
04.11.2012 18:36 7,3 C 90 % 999,3 hPa 0,0 l/m 18,7 km/h (3 Bft) SO 135 5,8 C 4,1 C
04.11.2012 18:41 7,3 C 90 % 999,1 hPa 0,0 l/m 11,9 km/h (2 Bft) S-SO 157 5,8 C 5,1 C
04.11.2012 18:46 7,3 C 90 % 999,0 hPa 0,0 l/m 8,3 km/h (2 Bft) S-SO 157 5,8 C 5,8 C
04.11.2012 18:51 7,3 C 90 % 998,7 hPa 0,0 l/m 6,5 km/h (2 Bft) SO 135 5,8 C 6,2 C
04.11.2012 18:56 7,3 C 90 % 998,6 hPa 0,0 l/m 16,6 km/h (3 Bft) O-NO 67 5,8 C 4,4 C
04.11.2012 19:01 7,3 C 90 % 998,5 hPa 0,0 l/m 19,1 km/h (3 Bft) O-SO 112 5,8 C 4,1 C
04.11.2012 19:06 7,3 C 90 % 998,4 hPa 0,0 l/m 20,2 km/h (4 Bft) O-SO 112 5,8 C 3,9 C
04.11.2012 19:11 7,3 C 90 % 998,3 hPa 0,0 l/m 0,0 km/h (0 Bft) SO 135 5,8 C 7,3 C
04.11.2012 19:16 7,2 C 90 % 998,6 hPa 0,0 l/m 15,8 km/h (3 Bft) SO 135 5,7 C 4,4 C
04.11.2012 19:21 7,2 C 90 % 998,5 hPa 0,5 l/m 2,5 km/h (1 Bft) SO 135 5,7 C 7,2 C
04.11.2012 19:26 7,2 C 90 % 998,5 hPa 0,0 l/m 6,5 km/h (2 Bft) S-SO 157 5,7 C 6,1 C
04.11.2012 19:31 7,2 C 90 % 998,5 hPa 0,0 l/m 10,1 km/h (2 Bft) SO 135 5,7 C 5,3 C
04.11.2012 19:36 7,2 C 90 % 998,4 hPa 0,0 l/m 12,2 km/h (2 Bft) O-SO 112 5,7 C 4,9 C
04.11.2012 19:41 7,2 C 90 % 998,3 hPa 0,0 l/m 8,3 km/h (2 Bft) SO 135 5,7 C 5,6 C
04.11.2012 19:46 7,2 C 91 % 998,3 hPa 0,0 l/m 11,9 km/h (2 Bft) SO 135 5,8 C 4,9 C
04.11.2012 19:51 7,2 C 91 % 998,2 hPa 0,0 l/m 6,5 km/h (2 Bft) S-SO 157 5,8 C 6,1 C
04.11.2012 19:56 7,2 C 91 % 998,1 hPa 0,0 l/m 5,4 km/h (1 Bft) SO 135 5,8 C 6,4 C
04.11.2012 20:01 7,2 C 91 % 997,7 hPa 0,0 l/m 16,9 km/h (3 Bft) SO 135 5,8 C 4,2 C
04.11.2012 20:06 7,2 C 91 % 997,7 hPa 0,0 l/m 9,7 km/h (2 Bft) S-SO 157 5,8 C 5,3 C
04.11.2012 20:11 7,2 C 91 % 997,7 hPa 0,0 l/m 11,5 km/h (2 Bft) O-SO 112 5,8 C 5,0 C
04.11.2012 20:16 7,2 C 91 % 997,8 hPa 0,0 l/m 6,5 km/h (2 Bft) SO 135 5,8 C 6,1 C
04.11.2012 20:21 7,2 C 91 % 997,8 hPa 0,0 l/m 5,0 km/h (1 Bft) S-SW 202 5,8 C 6,6 C
04.11.2012 20:26 7,2 C 91 % 997,7 hPa 0,0 l/m 12,2 km/h (2 Bft) S-SO 157 5,8 C 4,9 C
04.11.2012 20:31 7,2 C 91 % 997,8 hPa 0,0 l/m 5,4 km/h (1 Bft) SO 135 5,8 C 6,4 C
04.11.2012 20:36 7,2 C 91 % 997,8 hPa 0,0 l/m 3,2 km/h (1 Bft) SO 135 5,8 C 7,2 C
04.11.2012 20:41 7,2 C 91 % 997,7 hPa 0,0 l/m 6,5 km/h (2 Bft) S-SO 157 5,8 C 6,1 C
04.11.2012 20:46 7,3 C 91 % 997,9 hPa 0,0 l/m 11,2 km/h (2 Bft) SO 135 5,9 C 5,2 C
04.11.2012 20:51 7,3 C 91 % 997,6 hPa 0,0 l/m 10,4 km/h (2 Bft) S-SO 157 5,9 C 5,3 C
04.11.2012 20:56 7,3 C 91 % 997,4 hPa 0,0 l/m 6,8 km/h (2 Bft) SO 135 5,9 C 6,1 C
04.11.2012 21:01 7,3 C 92 % 997,5 hPa 0,5 l/m 9,7 km/h (2 Bft) S-SO 157 6,1 C 5,5 C
04.11.2012 21:06 7,4 C 92 % 997,5 hPa 0,0 l/m 4,0 km/h (1 Bft) SO 135 6,2 C 7,4 C
04.11.2012 21:11 7,4 C 92 % 997,5 hPa 0,0 l/m 8,3 km/h (2 Bft) S-SO 157 6,2 C 5,9 C
04.11.2012 21:16 7,4 C 92 % 997,3 hPa 0,5 l/m 1,4 km/h (1 Bft) S-SW 202 6,2 C 7,4 C
04.11.2012 21:21 7,4 C 92 % 997,1 hPa 0,0 l/m 11,9 km/h (2 Bft) S-SO 157 6,2 C 5,2 C
04.11.2012 21:26 7,4 C 92 % 997,1 hPa 0,0 l/m 6,5 km/h (2 Bft) S 180 6,2 C 6,3 C
04.11.2012 21:31 7,4 C 92 % 997,0 hPa 0,0 l/m 4,0 km/h (1 Bft) SO 135 6,2 C 7,4 C
04.11.2012 21:36 7,4 C 92 % 996,9 hPa 0,0 l/m 4,7 km/h (1 Bft) SO 135 6,2 C 6,9 C
04.11.2012 21:41 7,4 C 92 % 996,9 hPa 0,0 l/m 7,6 km/h (2 Bft) SO 135 6,2 C 6,0 C
04.11.2012 21:46 7,4 C 92 % 997,1 hPa 0,0 l/m 4,0 km/h (1 Bft) S-SO 157 6,2 C 7,4 C
04.11.2012 21:51 7,5 C 92 % 997,0 hPa 0,0 l/m 2,9 km/h (1 Bft) S-SO 157 6,3 C 7,5 C
04.11.2012 21:56 7,5 C 92 % 997,2 hPa 0,0 l/m 2,5 km/h (1 Bft) S-SO 157 6,3 C 7,5 C
04.11.2012 22:01 7,5 C 92 % 997,2 hPa 0,0 l/m 3,6 km/h (1 Bft) S 180 6,3 C 7,5 C
04.11.2012 22:06 7,5 C 92 % 997,2 hPa 0,0 l/m 4,7 km/h (1 Bft) S 180 6,3 C 7,0 C
04.11.2012 22:11 7,5 C 92 % 997,1 hPa 0,0 l/m 13,7 km/h (3 Bft) S-SO 157 6,3 C 5,0 C
04.11.2012 22:16 7,6 C 92 % 997,2 hPa 0,0 l/m 14,8 km/h (3 Bft) SW 225 6,4 C 5,0 C
04.11.2012 22:21 7,6 C 92 % 997,3 hPa 0,0 l/m 0,0 km/h (0 Bft) S 180 6,4 C 7,6 C
04.11.2012 22:26 7,6 C 92 % 996,9 hPa 0,0 l/m 3,2 km/h (1 Bft) S-SO 157 6,4 C 7,6 C
04.11.2012 22:31 7,6 C 92 % 996,9 hPa 0,0 l/m 4,3 km/h (1 Bft) S-SO 157 6,4 C 7,6 C
04.11.2012 22:36 7,6 C 92 % 996,9 hPa 0,0 l/m 10,8 km/h (2 Bft) S 180 6,4 C 5,6 C
04.11.2012 22:41 7,6 C 92 % 997,0 hPa 0,0 l/m 3,2 km/h (1 Bft) S-SW 202 6,4 C 7,6 C
04.11.2012 22:46 7,6 C 92 % 996,9 hPa 0,0 l/m 8,3 km/h (2 Bft) S 180 6,4 C 6,1 C
04.11.2012 22:51 7,6 C 92 % 996,8 hPa 0,0 l/m 4,3 km/h (1 Bft) S 180 6,4 C 7,6 C
04.11.2012 22:56 7,5 C 92 % 996,8 hPa 0,0 l/m 4,0 km/h (1 Bft) W-SW 247 6,3 C 7,5 C
04.11.2012 23:01 7,5 C 92 % 996,8 hPa 0,0 l/m 5,4 km/h (1 Bft) S-SW 202 6,3 C 6,8 C
04.11.2012 23:06 7,4 C 92 % 997,0 hPa 0,0 l/m 8,6 km/h (2 Bft) W-SW 247 6,2 C 5,8 C
04.11.2012 23:11 7,4 C 92 % 997,0 hPa 0,0 l/m 8,6 km/h (2 Bft) S 180 6,2 C 5,8 C
04.11.2012 23:16 7,4 C 92 % 996,8 hPa 0,0 l/m 11,2 km/h (2 Bft) W-SW 247 6,2 C 5,3 C
04.11.2012 23:21 7,4 C 92 % 996,8 hPa 0,0 l/m 9,4 km/h (2 Bft) W-SW 247 6,2 C 5,6 C
04.11.2012 23:26 7,3 C 92 % 997,0 hPa 0,0 l/m 7,6 km/h (2 Bft) S-SO 157 6,1 C 5,9 C
04.11.2012 23:31 7,3 C 92 % 996,8 hPa 0,0 l/m 10,8 km/h (2 Bft) SW 225 6,1 C 5,3 C
04.11.2012 23:36 7,3 C 92 % 996,8 hPa 0,0 l/m 9,4 km/h (2 Bft) SW 225 6,1 C 5,5 C
04.11.2012 23:41 7,3 C 92 % 997,0 hPa 0,0 l/m 9,0 km/h (2 Bft) SW 225 6,1 C 5,6 C
04.11.2012 23:46 7,3 C 92 % 996,8 hPa 0,0 l/m 7,6 km/h (2 Bft) SW 225 6,1 C 5,9 C
04.11.2012 23:51 7,3 C 92 % 996,8 hPa 0,0 l/m 12,2 km/h (2 Bft) W 270 6,1 C 5,0 C
04.11.2012 23:56 7,3 C 92 % 996,9 hPa 0,0 l/m 10,1 km/h (2 Bft) W-SW 247 6,1 C 5,4 C
_ Min-Zeit 07:26 13:01 22:51 - 06:31 - - 06:46 06:41
Minimum _ 3,2 C 81 % 996,8 hPa - 0,0 km/h (0 Bft) - - 1,5 C 0,8 C
_ Max-Zeit 13:26 21:01 08:56 18:11 19:06 - - 12:51 13:26
Maximum _ 9,6 C 92 % 1006,4 hPa 0,5 l/m 20,2 km/h
O-SO (4 Bft)
- - 6,6 C 9,6 C
Durchschnitt _ 6,4 C 87 % 1002,6 hPa #2,1 l/m 6,0 km/h (2 Bft) SO - 4,4 C 5,4 C
(c) by David Heller